createdAt,value
2018-12-20T00:00:05.924Z,0.90
2018-12-20T00:02:36.898Z,1.00
2018-12-20T00:05:05.844Z,0.90
2018-12-20T00:07:39.113Z,0.90
2018-12-20T00:10:13.577Z,0.90
2018-12-20T00:12:44.676Z,0.90
2018-12-20T00:15:16.507Z,0.90
2018-12-20T00:17:48.635Z,1.00
2018-12-20T00:20:28.773Z,1.00
2018-12-20T00:23:02.204Z,1.00
2018-12-20T00:25:32.881Z,1.00
2018-12-20T00:28:03.436Z,1.00
2018-12-20T00:30:32.517Z,0.90
2018-12-20T00:33:03.814Z,0.90
2018-12-20T00:35:42.027Z,0.90
2018-12-20T00:38:13.193Z,0.90
2018-12-20T00:40:44.917Z,0.90
2018-12-20T00:43:13.593Z,0.90
2018-12-20T00:45:54.209Z,0.90
2018-12-20T00:48:25.339Z,0.90
2018-12-20T00:50:56.548Z,0.90
2018-12-20T00:53:27.810Z,0.90
2018-12-20T00:56:05.870Z,0.90
2018-12-20T00:58:39.528Z,0.90
2018-12-20T01:01:11.008Z,0.90
2018-12-20T01:03:45.645Z,0.90
2018-12-20T01:06:14.959Z,0.90
2018-12-20T01:08:52.953Z,1.00
2018-12-20T01:11:26.899Z,1.00
2018-12-20T01:13:56.311Z,1.00
2018-12-20T01:16:37.117Z,1.00
2018-12-20T01:19:07.694Z,1.00
2018-12-20T01:21:36.697Z,0.90
2018-12-20T01:24:08.147Z,0.90
2018-12-20T01:26:41.651Z,0.90
2018-12-20T01:29:12.721Z,0.90
2018-12-20T01:31:46.554Z,0.90
2018-12-20T01:34:17.111Z,0.90
2018-12-20T01:36:46.159Z,0.90
2018-12-20T01:39:22.669Z,0.90
2018-12-20T01:41:53.349Z,1.00
2018-12-20T01:44:27.310Z,0.90
2018-12-20T01:46:58.713Z,0.90
2018-12-20T01:49:34.085Z,0.90
2018-12-20T01:52:02.955Z,0.90
2018-12-20T01:54:34.221Z,0.90
2018-12-20T01:57:14.896Z,0.90
2018-12-20T02:02:52.039Z,1.00
2018-12-20T02:05:27.858Z,0.90
2018-12-20T02:08:00.019Z,0.90
2018-12-20T02:13:24.541Z,0.90
2018-12-20T02:15:55.319Z,0.90
2018-12-20T02:18:33.231Z,0.90
2018-12-20T02:21:04.600Z,0.90
2018-12-20T02:23:35.591Z,0.90
2018-12-20T02:26:06.728Z,0.90
2018-12-20T02:28:37.485Z,0.80
2018-12-20T02:31:10.828Z,0.80
2018-12-20T02:33:44.557Z,0.80
2018-12-20T02:36:15.838Z,0.80
2018-12-20T02:38:46.854Z,0.80
2018-12-20T02:41:18.304Z,0.80
2018-12-20T02:43:49.355Z,0.80
2018-12-20T02:46:25.336Z,0.80
2018-12-20T02:48:54.770Z,0.90
2018-12-20T02:51:32.893Z,0.80
2018-12-20T02:54:06.463Z,0.90
2018-12-20T02:56:39.960Z,0.80
2018-12-20T02:59:11.157Z,0.80
2018-12-20T03:01:41.897Z,0.90
2018-12-20T03:04:16.276Z,0.90
2018-12-20T03:06:46.104Z,0.80
2018-12-20T03:09:16.949Z,0.80
2018-12-20T03:11:48.074Z,0.80
2018-12-20T03:14:31.068Z,0.80
2018-12-20T03:17:01.959Z,0.80
2018-12-20T03:19:40.098Z,0.80
2018-12-20T03:22:13.734Z,0.80
2018-12-20T03:24:45.076Z,0.80
2018-12-20T03:27:22.878Z,0.70
2018-12-20T03:29:54.046Z,0.70
2018-12-20T03:32:25.268Z,0.70
2018-12-20T03:34:56.442Z,0.70
2018-12-20T03:37:34.293Z,0.70
2018-12-20T03:40:07.506Z,0.70
2018-12-20T03:42:38.395Z,0.60
2018-12-20T03:45:16.278Z,0.70
2018-12-20T03:47:46.668Z,0.60
2018-12-20T03:50:18.379Z,0.60
2018-12-20T03:52:51.855Z,0.60
2018-12-20T03:55:23.351Z,0.60
2018-12-20T03:57:57.613Z,0.60
2018-12-20T04:00:30.938Z,0.60
2018-12-20T04:03:00.511Z,0.60
2018-12-20T04:05:31.690Z,0.60
2018-12-20T04:08:09.690Z,0.60
2018-12-20T04:10:40.801Z,0.60
2018-12-20T04:13:12.103Z,0.60
2018-12-20T04:15:43.575Z,0.60
2018-12-20T04:18:21.519Z,0.60
2018-12-20T04:20:52.871Z,0.70
2018-12-20T04:23:24.279Z,0.70
2018-12-20T04:26:02.005Z,0.70
2018-12-20T04:28:32.873Z,0.70
2018-12-20T04:31:06.459Z,0.70
2018-12-20T04:33:40.532Z,0.70
2018-12-20T04:36:11.755Z,0.70
2018-12-20T04:38:45.709Z,0.70
2018-12-20T04:41:16.554Z,0.70
2018-12-20T04:43:47.648Z,0.70
2018-12-20T04:46:28.168Z,0.70
2018-12-20T04:49:06.243Z,0.80
2018-12-20T04:51:37.704Z,0.70
2018-12-20T04:54:18.092Z,0.80
2018-12-20T04:56:48.963Z,0.80
2018-12-20T04:59:18.053Z,0.80
2018-12-20T05:01:52.108Z,0.80
2018-12-20T05:04:25.873Z,0.80
2018-12-20T05:06:56.835Z,0.80
2018-12-20T05:09:27.988Z,0.80
2018-12-20T05:11:59.488Z,0.80
2018-12-20T05:14:30.693Z,0.80
2018-12-20T05:17:06.155Z,0.80
2018-12-20T05:19:35.012Z,0.80
2018-12-20T05:22:04.010Z,0.80
2018-12-20T05:24:41.101Z,0.80
2018-12-20T05:27:10.224Z,0.80
2018-12-20T05:29:41.399Z,0.90
2018-12-20T05:32:10.485Z,0.90
2018-12-20T05:34:51.317Z,0.90
2018-12-20T05:37:20.412Z,0.90
2018-12-20T05:39:54.580Z,0.90
2018-12-20T05:42:23.544Z,0.90
2018-12-20T05:44:56.925Z,0.80
2018-12-20T05:47:32.949Z,0.80
2018-12-20T05:50:04.496Z,0.90
2018-12-20T05:52:35.024Z,0.90
2018-12-20T05:55:13.196Z,0.80
2018-12-20T05:57:44.596Z,0.80
2018-12-20T06:00:18.161Z,0.80
2018-12-20T06:02:49.215Z,0.80
2018-12-20T06:05:20.630Z,0.80
2018-12-20T06:07:55.098Z,0.80
2018-12-20T06:10:26.361Z,0.80
2018-12-20T06:12:57.677Z,0.80
2018-12-20T06:15:27.009Z,0.80
2018-12-20T06:18:04.449Z,0.80
2018-12-20T06:20:35.799Z,0.80
2018-12-20T06:23:07.649Z,0.80
2018-12-20T06:25:36.691Z,0.80
2018-12-20T06:28:07.922Z,0.80
2018-12-20T06:30:45.813Z,0.80
2018-12-20T06:33:19.813Z,0.80
2018-12-20T06:35:51.010Z,0.80
2018-12-20T06:38:28.833Z,0.80
2018-12-20T06:40:57.824Z,0.80
2018-12-20T06:43:26.830Z,0.80
2018-12-20T06:45:57.905Z,0.80
2018-12-20T06:48:26.993Z,0.90
2018-12-20T06:51:05.314Z,0.90
2018-12-20T06:53:38.901Z,0.90
2018-12-20T06:56:09.749Z,0.90
2018-12-20T06:58:40.464Z,0.90
2018-12-20T07:01:11.672Z,0.90
2018-12-20T07:03:45.573Z,0.90
2018-12-20T07:06:17.054Z,1.00
2018-12-20T07:08:47.966Z,1.00
2018-12-20T07:11:19.633Z,1.00
2018-12-20T07:13:50.272Z,1.00
2018-12-20T07:16:29.297Z,1.00
2018-12-20T07:18:58.491Z,1.00
2018-12-20T07:21:29.773Z,1.00
2018-12-20T07:24:04.373Z,1.00
2018-12-20T07:26:37.777Z,1.00
2018-12-20T07:29:11.929Z,1.00
2018-12-20T07:31:43.269Z,1.00
2018-12-20T07:34:13.962Z,1.00
2018-12-20T07:36:51.705Z,1.00
2018-12-20T07:39:22.859Z,1.00
2018-12-20T07:41:51.933Z,1.10
2018-12-20T07:44:21.320Z,1.20
2018-12-20T07:46:59.227Z,1.10
2018-12-20T07:49:30.042Z,1.10
2018-12-20T07:52:01.032Z,1.20
2018-12-20T07:54:31.945Z,1.10
2018-12-20T07:57:10.617Z,1.20
2018-12-20T07:59:44.186Z,1.20
2018-12-20T08:02:15.389Z,1.20
2018-12-20T08:04:53.057Z,1.20
2018-12-20T08:10:03.128Z,1.30
2018-12-20T08:12:34.221Z,1.40
2018-12-20T08:15:03.694Z,1.40
2018-12-20T08:17:34.165Z,1.40
2018-12-20T08:20:06.345Z,1.40
2018-12-20T08:22:37.396Z,1.40
2018-12-20T08:25:10.945Z,1.50
2018-12-20T08:27:41.879Z,1.50
2018-12-20T08:30:12.978Z,1.50
2018-12-20T08:32:48.736Z,1.50
2018-12-20T08:35:19.841Z,1.50
2018-12-20T08:37:57.712Z,1.60
2018-12-20T08:40:31.810Z,1.60
2018-12-20T08:43:02.954Z,1.70
2018-12-20T08:45:37.705Z,1.70
2018-12-20T08:48:09.013Z,1.80
2018-12-20T08:50:45.402Z,1.90
2018-12-20T08:53:16.457Z,2.00
2018-12-20T08:55:50.745Z,2.20
2018-12-20T08:58:21.804Z,2.20
2018-12-20T09:00:50.838Z,2.20
2018-12-20T09:03:19.959Z,2.10
2018-12-20T09:05:51.228Z,2.20
2018-12-20T09:08:23.177Z,2.20
2018-12-20T09:10:55.341Z,2.20
2018-12-20T09:13:24.201Z,2.20
2018-12-20T09:15:55.180Z,2.20
2018-12-20T09:18:26.149Z,2.30
2018-12-20T09:21:00.758Z,2.40
2018-12-20T09:23:31.310Z,2.50
2018-12-20T09:26:00.829Z,2.50
2018-12-20T09:28:38.601Z,2.50
2018-12-20T09:31:09.525Z,2.50
2018-12-20T09:33:43.957Z,2.50
2018-12-20T09:36:20.771Z,2.40
2018-12-20T09:38:51.390Z,2.30
2018-12-20T09:41:27.430Z,2.30
2018-12-20T09:43:58.391Z,2.20
2018-12-20T09:46:27.288Z,2.30
2018-12-20T09:49:02.301Z,2.30
2018-12-20T09:51:33.045Z,2.40
2018-12-20T09:54:10.676Z,2.50
2018-12-20T09:56:41.181Z,2.50
2018-12-20T09:59:19.051Z,2.60
2018-12-20T10:01:47.740Z,2.70
2018-12-20T10:04:16.812Z,2.70
2018-12-20T10:06:47.814Z,2.60
2018-12-20T10:09:16.821Z,2.60
2018-12-20T10:11:47.913Z,2.60
2018-12-20T10:14:16.707Z,2.50
2018-12-20T10:16:52.699Z,2.50
2018-12-20T10:19:24.246Z,2.50
2018-12-20T10:21:55.069Z,2.50
2018-12-20T10:24:25.981Z,2.50
2018-12-20T10:27:07.385Z,2.60
2018-12-20T10:29:39.029Z,2.60
2018-12-20T10:32:10.230Z,2.60
2018-12-20T10:34:51.659Z,2.60
2018-12-20T10:37:20.670Z,2.70
2018-12-20T10:39:53.945Z,2.60
2018-12-20T10:42:22.842Z,2.70
2018-12-20T10:44:59.889Z,2.70
2018-12-20T10:47:31.365Z,2.80
2018-12-20T10:50:01.879Z,2.80
2018-12-20T10:52:32.958Z,2.70
2018-12-20T10:55:10.417Z,2.70
2018-12-20T10:57:41.120Z,2.70
2018-12-20T11:00:12.698Z,2.70
2018-12-20T11:02:49.210Z,2.60
2018-12-20T11:05:22.289Z,2.60
2018-12-20T11:07:56.913Z,2.50
2018-12-20T11:10:28.301Z,2.40
2018-12-20T11:13:00.653Z,2.30
2018-12-20T11:15:38.258Z,2.30
2018-12-20T11:18:12.774Z,2.20
2018-12-20T11:20:43.257Z,2.20
2018-12-20T11:23:13.911Z,2.20
2018-12-20T11:25:44.837Z,2.10
2018-12-20T11:28:13.821Z,2.20
2018-12-20T11:30:42.625Z,2.30
2018-12-20T11:33:13.842Z,2.30
2018-12-20T11:35:51.767Z,2.30
2018-12-20T11:38:23.041Z,2.30
2018-12-20T11:40:54.729Z,2.40
2018-12-20T11:43:25.925Z,2.40
2018-12-20T11:45:59.926Z,2.40
2018-12-20T11:48:30.822Z,2.40
2018-12-20T11:51:03.756Z,2.40
2018-12-20T11:53:32.959Z,2.40
2018-12-20T11:56:10.086Z,2.40
2018-12-20T11:58:44.424Z,2.40
2018-12-20T12:01:17.925Z,2.50
2018-12-20T12:03:47.377Z,2.50
2018-12-20T12:06:18.621Z,2.50
2018-12-20T12:08:53.703Z,2.60
2018-12-20T12:11:24.186Z,2.60
2018-12-20T12:13:53.093Z,2.60
2018-12-20T12:16:30.289Z,2.60
2018-12-20T12:19:00.955Z,2.60
2018-12-20T12:21:42.157Z,2.60
2018-12-20T12:24:13.133Z,2.60
2018-12-20T12:26:46.889Z,2.60
2018-12-20T12:29:18.041Z,2.60
2018-12-20T12:31:49.545Z,2.60
2018-12-20T12:34:21.041Z,2.60
2018-12-20T12:36:51.725Z,2.60
2018-12-20T12:39:23.094Z,2.60
2018-12-20T12:41:56.340Z,2.60
2018-12-20T12:44:27.513Z,2.60
2018-12-20T12:46:59.097Z,2.60
2018-12-20T12:49:28.084Z,2.60
2018-12-20T12:51:58.934Z,2.70
2018-12-20T12:54:37.305Z,2.70
2018-12-20T12:57:06.157Z,2.70
2018-12-20T12:59:37.553Z,2.80
2018-12-20T13:02:09.117Z,2.90
2018-12-20T13:04:45.510Z,2.90
2018-12-20T13:07:17.097Z,2.90
2018-12-20T13:09:51.957Z,2.90
2018-12-20T13:12:22.341Z,3.00
2018-12-20T13:14:53.717Z,3.00
2018-12-20T13:17:24.619Z,3.00
2018-12-20T13:19:55.454Z,3.00
2018-12-20T13:22:26.742Z,3.00
2018-12-20T13:24:59.865Z,3.00
2018-12-20T13:27:32.805Z,3.10
2018-12-20T13:30:02.059Z,3.10
2018-12-20T13:32:32.860Z,3.10
2018-12-20T13:35:01.725Z,3.10
2018-12-20T13:37:35.623Z,3.10
2018-12-20T13:40:10.133Z,3.10
2018-12-20T13:42:43.477Z,3.10
2018-12-20T13:45:18.309Z,3.10
2018-12-20T13:47:59.239Z,3.10
2018-12-20T13:50:32.681Z,3.10
2018-12-20T13:53:03.728Z,3.10
2018-12-20T13:55:32.541Z,3.10
2018-12-20T13:58:10.490Z,3.10
2018-12-20T14:00:40.938Z,3.10
2018-12-20T14:03:11.660Z,3.10
2018-12-20T14:05:48.689Z,3.10
2018-12-20T14:08:20.037Z,3.20
2018-12-20T14:10:50.915Z,3.20
2018-12-20T14:13:22.255Z,3.20
2018-12-20T14:16:00.111Z,3.20
2018-12-20T14:18:31.389Z,3.20
2018-12-20T14:21:07.468Z,3.20
2018-12-20T14:23:41.101Z,3.20
2018-12-20T14:26:14.633Z,3.20
2018-12-20T14:28:45.902Z,3.20
2018-12-20T14:31:16.605Z,3.20
2018-12-20T14:33:45.928Z,3.20
2018-12-20T14:36:15.012Z,3.20
2018-12-20T14:38:44.577Z,3.20
2018-12-20T14:41:14.978Z,3.20
2018-12-20T14:43:43.860Z,3.20
2018-12-20T14:46:19.793Z,3.20
2018-12-20T14:48:49.058Z,3.20
2018-12-20T14:51:18.084Z,3.20
2018-12-20T14:53:49.217Z,3.20
2018-12-20T14:56:18.578Z,3.20
2018-12-20T14:58:56.349Z,3.20
2018-12-20T15:01:26.765Z,3.20
2018-12-20T15:04:00.337Z,3.10
2018-12-20T15:06:29.521Z,3.10
2018-12-20T15:08:59.982Z,3.10
2018-12-20T15:11:37.985Z,3.20
2018-12-20T15:14:11.145Z,3.20
2018-12-20T15:16:42.428Z,3.20
2018-12-20T15:19:13.538Z,3.10
2018-12-20T15:21:48.946Z,3.20
2018-12-20T15:24:17.827Z,3.10
2018-12-20T15:26:56.177Z,3.10
2018-12-20T15:29:25.141Z,3.10
2018-12-20T15:31:56.443Z,3.10
2018-12-20T15:34:34.337Z,3.10
2018-12-20T15:37:05.829Z,3.10
2018-12-20T15:39:39.033Z,3.10
2018-12-20T15:42:08.253Z,3.10
2018-12-20T15:44:40.371Z,3.00
2018-12-20T15:47:11.047Z,3.10
2018-12-20T15:49:49.189Z,3.10
2018-12-20T15:52:20.659Z,3.10
2018-12-20T15:55:04.421Z,3.10
2018-12-20T15:57:36.128Z,3.10
2018-12-20T16:00:08.122Z,3.10
2018-12-20T16:02:39.374Z,3.10
2018-12-20T16:05:08.205Z,3.20
2018-12-20T16:07:48.690Z,3.20
2018-12-20T16:10:19.972Z,3.20
2018-12-20T16:12:51.470Z,3.20
2018-12-20T16:15:22.605Z,3.20
2018-12-20T16:17:53.666Z,3.10
2018-12-20T16:20:24.755Z,3.10
2018-12-20T16:22:55.933Z,3.10
2018-12-20T16:25:26.950Z,3.10
2018-12-20T16:27:57.956Z,3.10
2018-12-20T16:30:29.060Z,3.10
2018-12-20T16:33:00.271Z,3.00
2018-12-20T16:35:28.973Z,3.00
2018-12-20T16:38:01.156Z,3.00
2018-12-20T16:40:38.953Z,2.90
2018-12-20T16:43:10.135Z,2.90
2018-12-20T16:45:40.965Z,2.90
2018-12-20T16:48:12.449Z,2.90
2018-12-20T16:50:43.748Z,2.90
2018-12-20T16:53:14.821Z,2.80
2018-12-20T16:55:44.003Z,2.80
2018-12-20T16:58:24.945Z,2.80
2018-12-20T17:00:58.815Z,2.90
2018-12-20T17:03:27.632Z,2.90
2018-12-20T17:06:07.586Z,2.90
2018-12-20T17:08:36.841Z,2.90
2018-12-20T17:11:07.918Z,2.90
2018-12-20T17:13:36.877Z,2.90
2018-12-20T17:16:07.929Z,2.90
2018-12-20T17:18:38.761Z,3.00
2018-12-20T17:21:07.597Z,3.00
2018-12-20T17:23:38.465Z,3.00
2018-12-20T17:26:09.165Z,3.00
2018-12-20T17:28:40.152Z,3.00
2018-12-20T17:31:14.448Z,3.00
2018-12-20T17:33:45.729Z,3.00
2018-12-20T17:36:16.853Z,3.00
2018-12-20T17:38:47.719Z,3.10
2018-12-20T17:41:19.084Z,3.10
2018-12-20T17:43:50.440Z,3.10
2018-12-20T17:46:19.509Z,3.10
2018-12-20T17:48:50.504Z,3.10
2018-12-20T17:51:21.947Z,3.10
2018-12-20T17:53:55.197Z,3.10
2018-12-20T17:56:26.253Z,3.20
2018-12-20T17:58:55.453Z,3.20
2018-12-20T18:01:33.292Z,3.20
2018-12-20T18:04:03.720Z,3.20
2018-12-20T18:06:34.946Z,3.20
2018-12-20T18:09:08.050Z,3.20
2018-12-20T18:11:38.434Z,3.20
2018-12-20T18:14:08.004Z,3.20
2018-12-20T18:16:36.886Z,3.20
2018-12-20T18:19:08.035Z,3.20
2018-12-20T18:21:46.253Z,3.20
2018-12-20T18:24:17.268Z,3.20
2018-12-20T18:26:48.513Z,3.20
2018-12-20T18:29:19.597Z,3.30
2018-12-20T18:31:54.818Z,3.30
2018-12-20T18:34:25.833Z,3.30
2018-12-20T18:36:55.177Z,3.30
2018-12-20T18:39:28.874Z,3.30
2018-12-20T18:41:59.555Z,3.30
2018-12-20T18:44:35.136Z,3.30
2018-12-20T18:47:05.689Z,3.30
2018-12-20T18:49:36.657Z,3.30
2018-12-20T18:52:08.325Z,3.30
2018-12-20T18:54:39.205Z,3.30
2018-12-20T18:57:10.305Z,3.30
2018-12-20T18:59:41.505Z,3.30
2018-12-20T19:02:12.888Z,3.30
2018-12-20T19:04:47.009Z,3.30
2018-12-20T19:07:18.271Z,3.30
2018-12-20T19:09:47.517Z,3.30
2018-12-20T19:12:18.298Z,3.40
2018-12-20T19:14:47.346Z,3.40
2018-12-20T19:17:18.473Z,3.40
2018-12-20T19:19:56.208Z,3.40
2018-12-20T19:22:22.122Z,3.40
2018-12-20T19:24:52.529Z,3.40
2018-12-20T19:33:06.557Z,3.40
2018-12-20T19:35:37.045Z,3.40
2018-12-20T19:38:06.134Z,3.40
2018-12-20T19:40:35.430Z,3.40
2018-12-20T19:43:05.949Z,3.40
2018-12-20T19:45:46.220Z,3.40
2018-12-20T19:48:19.292Z,3.40
2018-12-20T19:50:50.217Z,3.40
2018-12-20T19:53:21.084Z,3.40
2018-12-20T19:55:52.267Z,3.40
2018-12-20T19:58:21.148Z,3.40
2018-12-20T20:00:50.212Z,3.40
2018-12-20T20:03:21.384Z,3.40
2018-12-20T20:05:51.313Z,3.40
2018-12-20T20:08:21.665Z,3.50
2018-12-20T20:10:52.872Z,3.50
2018-12-20T20:13:30.738Z,3.50
2018-12-20T20:15:56.245Z,3.50
2018-12-20T20:18:25.401Z,3.50
2018-12-20T20:20:56.092Z,3.40
2018-12-20T20:23:25.202Z,3.50
2018-12-20T20:26:01.141Z,3.40
2018-12-20T20:28:31.540Z,3.50
2018-12-20T20:31:02.710Z,3.50
2018-12-20T20:33:31.780Z,3.50
2018-12-20T20:36:02.833Z,3.50
2018-12-20T20:38:36.588Z,3.40
2018-12-20T20:41:08.112Z,3.40
2018-12-20T20:43:42.552Z,3.40
2018-12-20T20:46:13.156Z,3.40
2018-12-20T20:48:44.273Z,3.40
2018-12-20T20:51:15.241Z,3.40
2018-12-20T20:53:44.339Z,3.40
2018-12-20T20:56:22.309Z,3.30
2018-12-20T20:58:52.889Z,3.30
2018-12-20T21:01:22.045Z,3.30
2018-12-20T21:03:53.356Z,3.30
2018-12-20T21:06:26.529Z,3.30
2018-12-20T21:08:58.061Z,3.30
2018-12-20T21:11:28.909Z,3.30
2018-12-20T21:13:59.694Z,3.30
2018-12-20T21:16:28.822Z,3.30
2018-12-20T21:19:08.925Z,3.30
2018-12-20T21:21:43.232Z,3.40
2018-12-20T21:24:14.567Z,3.40
2018-12-20T21:26:45.825Z,3.40
2018-12-20T21:29:16.397Z,3.40
2018-12-20T21:31:47.574Z,3.40
2018-12-20T21:34:24.656Z,3.50
2018-12-20T21:36:56.159Z,3.50
2018-12-20T21:39:26.602Z,3.50
2018-12-20T21:41:57.714Z,3.50
2018-12-20T21:44:30.861Z,3.50
2018-12-20T21:47:02.202Z,3.50
2018-12-20T21:49:35.418Z,3.50
2018-12-20T21:52:05.037Z,3.50
2018-12-20T21:54:34.252Z,3.50
2018-12-20T21:57:05.873Z,3.50
2018-12-20T21:59:36.449Z,3.50
2018-12-20T22:02:07.553Z,3.50
2018-12-20T22:04:38.636Z,3.50
2018-12-20T22:07:07.505Z,3.60
2018-12-20T22:09:42.218Z,3.60
2018-12-20T22:12:12.577Z,3.60
2018-12-20T22:14:44.133Z,3.60
2018-12-20T22:17:14.593Z,3.60
2018-12-20T22:19:44.933Z,3.60
2018-12-20T22:22:13.908Z,3.60
2018-12-20T22:24:47.647Z,3.60
2018-12-20T22:27:21.482Z,3.60
2018-12-20T22:29:53.117Z,3.60
2018-12-20T22:32:23.880Z,3.60
2018-12-20T22:34:54.729Z,3.60
2018-12-20T22:37:31.945Z,3.60
2018-12-20T22:40:05.259Z,3.50
2018-12-20T22:42:36.309Z,3.60
2018-12-20T22:45:07.866Z,3.50
2018-12-20T22:47:38.501Z,3.50
2018-12-20T22:50:16.643Z,3.50
2018-12-20T22:52:48.388Z,3.50
2018-12-20T22:55:20.063Z,3.50
2018-12-20T22:57:51.032Z,3.50
2018-12-20T23:00:21.985Z,3.50
2018-12-20T23:02:56.302Z,3.50
2018-12-20T23:05:30.173Z,3.50
2018-12-20T23:08:04.543Z,3.50
2018-12-20T23:10:39.769Z,3.50
2018-12-20T23:13:12.880Z,3.50
2018-12-20T23:15:42.108Z,3.50
2018-12-20T23:18:13.008Z,3.50
2018-12-20T23:20:43.832Z,3.50
2018-12-20T23:23:15.404Z,3.50
2018-12-20T23:25:44.090Z,3.50
2018-12-20T23:28:15.473Z,3.50
2018-12-20T23:30:48.953Z,3.60
2018-12-20T23:33:20.046Z,3.60
2018-12-20T23:35:51.126Z,3.60
2018-12-20T23:38:28.810Z,3.60
2018-12-20T23:41:03.281Z,3.60
2018-12-20T23:43:34.244Z,3.60
2018-12-20T23:46:05.163Z,3.60
2018-12-20T23:48:34.113Z,3.60
2018-12-20T23:51:13.223Z,3.50
2018-12-20T23:53:38.331Z,3.50
2018-12-20T23:56:09.390Z,3.60
2018-12-20T23:58:46.549Z,3.60
